Comstock, NY (12821)

7:24 PM EST on November 28, 2014 (GMT -0500)
Granville | Change Station
CLOSE
Current Station
Personal Weather Station
Location: Granville, NY
Elevation: 417 ft
Nearby Weather Stations

Elev 417 ft 43.40 °N, 73.27 °W | Updated 9 minutes ago

Partly Cloudy
Partly Cloudy
18.4 °F
Feels Like 18 °F
N
0.0
Wind Variable Wind from NNE
Gusts 1.0 mph

Today
High -- | Low -- °F
--% Chance of Precip.
Yesterday
High -- | Low -- °F
Precip. -- in
7:03 AM 4:19 PM
Waxing Crescent, 45% visible
Pressure 30.23 in
Visibility 10.0 miles
Clouds Clear
Windchill 18 °F
Dew Point 14 °F
Humidity 84%
Rainfall 0.00 in
Snow Depth Not available.
UV 0 out of 12
Pollen .10 out of 12
Air Quality Not available.
Flu Activity Not available.
METAR KGFL 282353Z AUTO 23004KT 10SM CLR M06/M11 A3019 RMK AO2 SLP236 60000 T10561106 10000 21056 51020

More Conditions Fewer Conditions

Pressure 30.23 in
Visibility 10.0 miles
Clouds Clear
Windchill 18 °F
Dew Point 14 °F
Humidity 84%
Rainfall 0.00 in
Snow Depth Not available.
UV 0 out of 12
Pollen .10 out of 12
Air Quality Not available.
Flu Activity Not available.
METAR KGFL 282353Z AUTO 23004KT 10SM CLR M06/M11 A3019 RMK AO2 SLP236 60000 T10561106 10000 21056 51020

More Conditions Fewer Conditions

10-Day Weather Forecast

Almanac

Astronomy

Nov. 28, 2014 Rise Set
Actual Time
Civil Twilight
Nautical Twilight
Astronomical Twilight
Moon
Length of Visible Light
Length of Day
Tomorrow will be .
, % of the Moon is Illuminated

Today's Extremes

State Highs State Lows

Community

WunderPhotos

Upload Photos

1,774,343 photos uploaded!

WunderBlogs® & News

Nearby

Air Quality

  Air Quality AQ Index Pollutant
Not available.

Snow Depth

Station Depth Elevation

Earthquake Activity

City Distance Mag. Time & Date
Minimum magnitude displayed is 2.5.

Coastal Water Temperatures

Place Temperature

Nearby Weather Stations